sensor_id;sensor_type;location;lat;lon;timestamp;P1;durP1;ratioP1;P2;durP2;ratioP2
27113;SDS011;14648;49.730;8.614;2023-02-24T00:02:03;40.27;;;21.13;;
27113;SDS011;14648;49.730;8.614;2023-02-24T00:04:30;39.50;;;20.17;;
27113;SDS011;14648;49.730;8.614;2023-02-24T00:07:03;42.83;;;20.60;;
27113;SDS011;14648;49.730;8.614;2023-02-24T00:09:34;42.03;;;19.70;;
27113;SDS011;14648;49.730;8.614;2023-02-24T00:12:02;43.33;;;18.97;;
27113;SDS011;14648;49.730;8.614;2023-02-24T00:14:35;38.93;;;19.03;;
27113;SDS011;14648;49.730;8.614;2023-02-24T00:17:03;37.57;;;18.40;;
27113;SDS011;14648;49.730;8.614;2023-02-24T00:19:32;43.20;;;18.30;;
27113;SDS011;14648;49.730;8.614;2023-02-24T00:21:58;37.47;;;17.80;;
27113;SDS011;14648;49.730;8.614;2023-02-24T00:24:26;36.20;;;17.53;;
27113;SDS011;14648;49.730;8.614;2023-02-24T00:26:52;39.47;;;19.00;;
27113;SDS011;14648;49.730;8.614;2023-02-24T00:29:20;43.30;;;18.90;;
27113;SDS011;14648;49.730;8.614;2023-02-24T00:31:54;31.83;;;16.57;;
27113;SDS011;14648;49.730;8.614;2023-02-24T00:34:28;35.03;;;17.53;;
27113;SDS011;14648;49.730;8.614;2023-02-24T00:36:56;40.37;;;17.80;;
27113;SDS011;14648;49.730;8.614;2023-02-24T00:39:22;37.33;;;17.70;;
27113;SDS011;14648;49.730;8.614;2023-02-24T00:41:52;33.10;;;15.40;;
27113;SDS011;14648;49.730;8.614;2023-02-24T00:44:22;45.50;;;18.30;;
27113;SDS011;14648;49.730;8.614;2023-02-24T00:46:48;41.70;;;17.90;;
27113;SDS011;14648;49.730;8.614;2023-02-24T00:49:16;36.23;;;16.93;;
27113;SDS011;14648;49.730;8.614;2023-02-24T00:51:44;42.33;;;16.80;;
27113;SDS011;14648;49.730;8.614;2023-02-24T00:54:12;39.00;;;17.57;;
27113;SDS011;14648;49.730;8.614;2023-02-24T00:56:41;36.00;;;16.37;;
27113;SDS011;14648;49.730;8.614;2023-02-24T00:59:10;39.23;;;18.83;;
27113;SDS011;14648;49.730;8.614;2023-02-24T01:01:39;43.40;;;17.73;;
27113;SDS011;14648;49.730;8.614;2023-02-24T01:04:06;40.53;;;17.17;;
27113;SDS011;14648;49.730;8.614;2023-02-24T01:06:39;37.03;;;15.30;;
27113;SDS011;14648;49.730;8.614;2023-02-24T01:09:13;34.00;;;15.77;;
27113;SDS011;14648;49.730;8.614;2023-02-24T01:11:43;34.90;;;16.07;;
27113;SDS011;14648;49.730;8.614;2023-02-24T01:14:30;37.60;;;16.10;;
27113;SDS011;14648;49.730;8.614;2023-02-24T01:16:59;35.77;;;16.57;;
27113;SDS011;14648;49.730;8.614;2023-02-24T01:19:26;43.87;;;15.80;;
27113;SDS011;14648;49.730;8.614;2023-02-24T01:22:02;34.67;;;17.63;;
27113;SDS011;14648;49.730;8.614;2023-02-24T01:24:33;32.03;;;15.83;;
27113;SDS011;14648;49.730;8.614;2023-02-24T01:27:02;35.63;;;15.40;;
27113;SDS011;14648;49.730;8.614;2023-02-24T01:29:29;36.97;;;14.40;;
27113;SDS011;14648;49.730;8.614;2023-02-24T01:31:55;37.40;;;17.47;;
27113;SDS011;14648;49.730;8.614;2023-02-24T01:34:23;33.10;;;14.93;;
27113;SDS011;14648;49.730;8.614;2023-02-24T01:36:50;33.67;;;15.77;;
27113;SDS011;14648;49.730;8.614;2023-02-24T01:39:16;41.40;;;16.87;;
27113;SDS011;14648;49.730;8.614;2023-02-24T01:41:43;33.37;;;15.97;;
27113;SDS011;14648;49.730;8.614;2023-02-24T01:46:46;40.67;;;17.63;;
27113;SDS011;14648;49.730;8.614;2023-02-24T01:49:26;38.87;;;16.37;;
27113;SDS011;14648;49.730;8.614;2023-02-24T01:52:06;43.27;;;18.47;;
27113;SDS011;14648;49.730;8.614;2023-02-24T01:54:51;38.20;;;15.60;;
27113;SDS011;14648;49.730;8.614;2023-02-24T01:57:23;37.53;;;17.50;;
27113;SDS011;14648;49.730;8.614;2023-02-24T01:59:53;44.53;;;18.60;;
27113;SDS011;14648;49.730;8.614;2023-02-24T02:02:26;36.27;;;17.87;;
27113;SDS011;14648;49.730;8.614;2023-02-24T02:07:22;32.97;;;16.70;;
27113;SDS011;14648;49.730;8.614;2023-02-24T02:09:50;39.53;;;17.17;;
27113;SDS011;14648;49.730;8.614;2023-02-24T02:12:19;39.00;;;16.53;;
27113;SDS011;14648;49.730;8.614;2023-02-24T02:14:47;37.67;;;17.00;;
27113;SDS011;14648;49.730;8.614;2023-02-24T02:19:55;39.13;;;17.90;;
27113;SDS011;14648;49.730;8.614;2023-02-24T02:22:41;41.97;;;20.67;;
27113;SDS011;14648;49.730;8.614;2023-02-24T02:38:01;42.27;;;18.27;;
27113;SDS011;14648;49.730;8.614;2023-02-24T02:40:43;47.87;;;18.47;;
27113;SDS011;14648;49.730;8.614;2023-02-24T02:43:35;42.30;;;17.10;;
27113;SDS011;14648;49.730;8.614;2023-02-24T02:46:09;43.37;;;18.70;;
27113;SDS011;14648;49.730;8.614;2023-02-24T02:49:03;40.53;;;17.70;;
27113;SDS011;14648;49.730;8.614;2023-02-24T02:51:39;49.13;;;18.57;;
27113;SDS011;14648;49.730;8.614;2023-02-24T02:57:00;43.43;;;17.43;;
27113;SDS011;14648;49.730;8.614;2023-02-24T02:59:35;43.40;;;18.63;;
27113;SDS011;14648;49.730;8.614;2023-02-24T03:02:05;46.07;;;18.90;;
27113;SDS011;14648;49.730;8.614;2023-02-24T03:04:43;47.80;;;18.80;;
27113;SDS011;14648;49.730;8.614;2023-02-24T03:07:15;51.77;;;17.60;;
27113;SDS011;14648;49.730;8.614;2023-02-24T03:09:45;44.70;;;17.67;;
27113;SDS011;14648;49.730;8.614;2023-02-24T03:12:22;42.80;;;17.33;;
27113;SDS011;14648;49.730;8.614;2023-02-24T03:14:53;39.57;;;16.97;;
27113;SDS011;14648;49.730;8.614;2023-02-24T03:17:24;40.30;;;16.93;;
27113;SDS011;14648;49.730;8.614;2023-02-24T03:20:00;44.43;;;18.07;;
27113;SDS011;14648;49.730;8.614;2023-02-24T03:23:01;37.97;;;17.03;;
27113;SDS011;14648;49.730;8.614;2023-02-24T03:25:43;49.23;;;16.70;;
27113;SDS011;14648;49.730;8.614;2023-02-24T03:28:38;44.23;;;19.07;;
27113;SDS011;14648;49.730;8.614;2023-02-24T03:34:14;45.37;;;18.17;;
27113;SDS011;14648;49.730;8.614;2023-02-24T03:36:43;41.53;;;18.70;;
27113;SDS011;14648;49.730;8.614;2023-02-24T03:39:11;46.53;;;18.13;;
27113;SDS011;14648;49.730;8.614;2023-02-24T03:41:48;41.37;;;17.50;;
27113;SDS011;14648;49.730;8.614;2023-02-24T03:44:29;39.43;;;17.07;;
27113;SDS011;14648;49.730;8.614;2023-02-24T03:46:55;39.27;;;17.00;;
27113;SDS011;14648;49.730;8.614;2023-02-24T03:49:21;45.23;;;17.53;;
27113;SDS011;14648;49.730;8.614;2023-02-24T03:52:06;40.73;;;17.97;;
27113;SDS011;14648;49.730;8.614;2023-02-24T03:54:49;36.03;;;15.60;;
27113;SDS011;14648;49.730;8.614;2023-02-24T03:57:40;36.83;;;16.87;;
27113;SDS011;14648;49.730;8.614;2023-02-24T04:00:34;46.83;;;18.50;;
27113;SDS011;14648;49.730;8.614;2023-02-24T04:06:53;39.53;;;16.83;;
27113;SDS011;14648;49.730;8.614;2023-02-24T04:09:28;37.57;;;16.63;;
27113;SDS011;14648;49.730;8.614;2023-02-24T04:15:21;43.40;;;16.80;;
27113;SDS011;14648;49.730;8.614;2023-02-24T04:18:12;43.17;;;16.40;;
27113;SDS011;14648;49.730;8.614;2023-02-24T04:20:44;40.17;;;16.80;;
27113;SDS011;14648;49.730;8.614;2023-02-24T04:23:17;38.57;;;16.33;;
27113;SDS011;14648;49.730;8.614;2023-02-24T04:25:49;36.50;;;16.00;;
27113;SDS011;14648;49.730;8.614;2023-02-24T04:28:19;44.53;;;16.77;;
27113;SDS011;14648;49.730;8.614;2023-02-24T04:30:48;36.53;;;16.17;;
27113;SDS011;14648;49.730;8.614;2023-02-24T04:33:19;36.60;;;14.50;;
27113;SDS011;14648;49.730;8.614;2023-02-24T04:35:47;32.67;;;15.07;;
27113;SDS011;14648;49.730;8.614;2023-02-24T04:38:15;40.83;;;16.87;;
27113;SDS011;14648;49.730;8.614;2023-02-24T04:40:44;36.23;;;15.80;;
27113;SDS011;14648;49.730;8.614;2023-02-24T04:43:09;37.73;;;16.70;;
27113;SDS011;14648;49.730;8.614;2023-02-24T04:45:37;33.53;;;14.40;;
27113;SDS011;14648;49.730;8.614;2023-02-24T04:48:06;37.13;;;15.20;;
27113;SDS011;14648;49.730;8.614;2023-02-24T04:50:37;34.63;;;13.80;;
27113;SDS011;14648;49.730;8.614;2023-02-24T04:53:06;37.43;;;15.03;;
27113;SDS011;14648;49.730;8.614;2023-02-24T04:55:39;35.20;;;12.83;;
27113;SDS011;14648;49.730;8.614;2023-02-24T04:58:11;38.63;;;14.53;;
27113;SDS011;14648;49.730;8.614;2023-02-24T05:00:44;33.03;;;14.57;;
27113;SDS011;14648;49.730;8.614;2023-02-24T05:03:13;36.70;;;14.63;;
27113;SDS011;14648;49.730;8.614;2023-02-24T05:05:47;35.23;;;13.40;;
27113;SDS011;14648;49.730;8.614;2023-02-24T05:08:20;34.67;;;15.40;;
27113;SDS011;14648;49.730;8.614;2023-02-24T05:10:47;29.67;;;12.97;;
27113;SDS011;14648;49.730;8.614;2023-02-24T05:13:15;37.10;;;15.30;;
27113;SDS011;14648;49.730;8.614;2023-02-24T05:15:45;33.60;;;15.17;;
27113;SDS011;14648;49.730;8.614;2023-02-24T05:18:12;38.87;;;15.83;;
27113;SDS011;14648;49.730;8.614;2023-02-24T05:20:51;46.53;;;16.87;;
27113;SDS011;14648;49.730;8.614;2023-02-24T05:23:43;48.40;;;19.23;;
27113;SDS011;14648;49.730;8.614;2023-02-24T05:26:12;46.97;;;17.87;;
27113;SDS011;14648;49.730;8.614;2023-02-24T05:28:41;44.17;;;17.27;;
27113;SDS011;14648;49.730;8.614;2023-02-24T05:31:09;39.77;;;17.80;;
27113;SDS011;14648;49.730;8.614;2023-02-24T05:33:40;39.90;;;17.20;;
27113;SDS011;14648;49.730;8.614;2023-02-24T05:36:09;47.73;;;17.57;;
27113;SDS011;14648;49.730;8.614;2023-02-24T05:38:41;45.90;;;18.87;;
27113;SDS011;14648;49.730;8.614;2023-02-24T05:41:13;45.10;;;19.10;;
27113;SDS011;14648;49.730;8.614;2023-02-24T05:43:45;41.47;;;18.63;;
27113;SDS011;14648;49.730;8.614;2023-02-24T05:46:24;41.43;;;17.27;;
27113;SDS011;14648;49.730;8.614;2023-02-24T05:48:53;40.50;;;16.03;;
27113;SDS011;14648;49.730;8.614;2023-02-24T05:51:21;43.23;;;16.50;;
27113;SDS011;14648;49.730;8.614;2023-02-24T05:53:59;41.90;;;16.80;;
27113;SDS011;14648;49.730;8.614;2023-02-24T05:56:37;46.13;;;18.70;;
27113;SDS011;14648;49.730;8.614;2023-02-24T05:59:09;43.47;;;17.93;;
27113;SDS011;14648;49.730;8.614;2023-02-24T06:01:39;43.20;;;17.53;;
27113;SDS011;14648;49.730;8.614;2023-02-24T06:04:08;43.60;;;17.07;;
27113;SDS011;14648;49.730;8.614;2023-02-24T06:06:34;37.77;;;16.20;;
27113;SDS011;14648;49.730;8.614;2023-02-24T06:09:03;37.40;;;14.47;;
27113;SDS011;14648;49.730;8.614;2023-02-24T06:11:34;41.67;;;16.27;;
27113;SDS011;14648;49.730;8.614;2023-02-24T06:14:01;43.17;;;16.80;;
27113;SDS011;14648;49.730;8.614;2023-02-24T06:16:31;34.93;;;16.00;;
27113;SDS011;14648;49.730;8.614;2023-02-24T06:18:58;38.07;;;15.30;;
27113;SDS011;14648;49.730;8.614;2023-02-24T06:21:24;32.40;;;14.47;;
27113;SDS011;14648;49.730;8.614;2023-02-24T06:23:53;41.03;;;15.67;;
27113;SDS011;14648;49.730;8.614;2023-02-24T06:26:21;38.43;;;14.70;;
27113;SDS011;14648;49.730;8.614;2023-02-24T06:28:50;44.10;;;15.27;;
27113;SDS011;14648;49.730;8.614;2023-02-24T06:31:18;42.40;;;16.00;;
27113;SDS011;14648;49.730;8.614;2023-02-24T06:33:45;34.73;;;14.50;;
27113;SDS011;14648;49.730;8.614;2023-02-24T06:36:12;39.77;;;17.07;;
27113;SDS011;14648;49.730;8.614;2023-02-24T06:38:38;42.07;;;15.53;;
27113;SDS011;14648;49.730;8.614;2023-02-24T06:41:05;48.07;;;17.80;;
27113;SDS011;14648;49.730;8.614;2023-02-24T06:43:44;40.73;;;17.60;;
27113;SDS011;14648;49.730;8.614;2023-02-24T06:46:13;45.00;;;16.97;;
27113;SDS011;14648;49.730;8.614;2023-02-24T06:48:40;41.37;;;16.87;;
27113;SDS011;14648;49.730;8.614;2023-02-24T06:51:08;48.60;;;17.53;;
27113;SDS011;14648;49.730;8.614;2023-02-24T06:53:40;43.00;;;18.57;;
27113;SDS011;14648;49.730;8.614;2023-02-24T06:56:09;41.00;;;17.13;;
27113;SDS011;14648;49.730;8.614;2023-02-24T06:58:42;46.83;;;18.27;;
27113;SDS011;14648;49.730;8.614;2023-02-24T07:01:10;47.97;;;18.83;;
27113;SDS011;14648;49.730;8.614;2023-02-24T07:03:42;41.57;;;18.60;;
27113;SDS011;14648;49.730;8.614;2023-02-24T07:06:27;46.10;;;18.77;;
27113;SDS011;14648;49.730;8.614;2023-02-24T07:08:56;47.17;;;19.10;;
27113;SDS011;14648;49.730;8.614;2023-02-24T07:11:23;50.00;;;18.77;;
27113;SDS011;14648;49.730;8.614;2023-02-24T07:13:52;51.17;;;19.30;;
27113;SDS011;14648;49.730;8.614;2023-02-24T07:16:19;41.63;;;17.30;;
27113;SDS011;14648;49.730;8.614;2023-02-24T07:18:51;47.17;;;19.13;;
27113;SDS011;14648;49.730;8.614;2023-02-24T07:21:23;49.60;;;19.90;;
27113;SDS011;14648;49.730;8.614;2023-02-24T07:23:54;46.07;;;19.13;;
27113;SDS011;14648;49.730;8.614;2023-02-24T07:26:22;57.23;;;20.57;;
27113;SDS011;14648;49.730;8.614;2023-02-24T07:28:50;44.33;;;18.90;;
27113;SDS011;14648;49.730;8.614;2023-02-24T07:31:19;42.03;;;18.83;;
27113;SDS011;14648;49.730;8.614;2023-02-24T07:33:48;54.10;;;20.17;;
27113;SDS011;14648;49.730;8.614;2023-02-24T07:36:18;48.50;;;17.90;;
27113;SDS011;14648;49.730;8.614;2023-02-24T07:38:51;42.97;;;19.20;;
27113;SDS011;14648;49.730;8.614;2023-02-24T07:41:20;45.03;;;19.30;;
27113;SDS011;14648;49.730;8.614;2023-02-24T07:43:47;43.70;;;19.97;;
27113;SDS011;14648;49.730;8.614;2023-02-24T07:46:18;48.07;;;20.27;;
27113;SDS011;14648;49.730;8.614;2023-02-24T07:48:50;47.97;;;20.30;;
27113;SDS011;14648;49.730;8.614;2023-02-24T07:51:21;54.40;;;23.27;;
27113;SDS011;14648;49.730;8.614;2023-02-24T07:53:50;45.63;;;20.47;;
27113;SDS011;14648;49.730;8.614;2023-02-24T07:56:25;49.60;;;20.57;;
27113;SDS011;14648;49.730;8.614;2023-02-24T07:58:55;52.57;;;21.00;;
27113;SDS011;14648;49.730;8.614;2023-02-24T08:01:34;49.87;;;19.47;;
27113;SDS011;14648;49.730;8.614;2023-02-24T08:04:03;46.93;;;20.67;;
27113;SDS011;14648;49.730;8.614;2023-02-24T08:06:34;50.50;;;22.87;;
27113;SDS011;14648;49.730;8.614;2023-02-24T08:09:14;45.97;;;19.73;;
27113;SDS011;14648;49.730;8.614;2023-02-24T08:11:46;48.80;;;18.43;;
27113;SDS011;14648;49.730;8.614;2023-02-24T08:14:19;47.80;;;19.83;;
27113;SDS011;14648;49.730;8.614;2023-02-24T08:16:49;43.53;;;19.13;;
27113;SDS011;14648;49.730;8.614;2023-02-24T08:19:26;45.37;;;19.50;;
27113;SDS011;14648;49.730;8.614;2023-02-24T08:22:04;48.77;;;20.77;;
27113;SDS011;14648;49.730;8.614;2023-02-24T08:24:45;51.43;;;20.47;;
27113;SDS011;14648;49.730;8.614;2023-02-24T08:27:17;48.47;;;21.07;;
27113;SDS011;14648;49.730;8.614;2023-02-24T08:29:53;55.20;;;21.17;;
27113;SDS011;14648;49.730;8.614;2023-02-24T08:34:49;45.87;;;19.90;;
27113;SDS011;14648;49.730;8.614;2023-02-24T08:37:20;49.80;;;21.77;;
27113;SDS011;14648;49.730;8.614;2023-02-24T08:39:48;46.00;;;21.60;;
27113;SDS011;14648;49.730;8.614;2023-02-24T08:42:18;53.27;;;20.80;;
27113;SDS011;14648;49.730;8.614;2023-02-24T08:44:45;51.77;;;20.57;;
27113;SDS011;14648;49.730;8.614;2023-02-24T08:47:15;47.20;;;20.67;;
27113;SDS011;14648;49.730;8.614;2023-02-24T08:49:45;46.07;;;20.67;;
27113;SDS011;14648;49.730;8.614;2023-02-24T08:52:13;49.57;;;20.10;;
27113;SDS011;14648;49.730;8.614;2023-02-24T08:54:42;44.77;;;19.70;;
27113;SDS011;14648;49.730;8.614;2023-02-24T08:57:13;40.50;;;19.37;;
27113;SDS011;14648;49.730;8.614;2023-02-24T08:59:42;48.40;;;19.60;;
27113;SDS011;14648;49.730;8.614;2023-02-24T09:02:18;43.40;;;19.07;;
27113;SDS011;14648;49.730;8.614;2023-02-24T09:07:24;44.60;;;19.83;;
27113;SDS011;14648;49.730;8.614;2023-02-24T09:09:52;42.67;;;21.43;;
27113;SDS011;14648;49.730;8.614;2023-02-24T09:12:20;49.27;;;21.30;;
27113;SDS011;14648;49.730;8.614;2023-02-24T09:15:02;46.70;;;20.93;;
27113;SDS011;14648;49.730;8.614;2023-02-24T09:17:29;49.00;;;21.10;;
27113;SDS011;14648;49.730;8.614;2023-02-24T09:20:05;45.23;;;21.50;;
27113;SDS011;14648;49.730;8.614;2023-02-24T09:22:56;47.67;;;21.10;;
27113;SDS011;14648;49.730;8.614;2023-02-24T09:25:31;41.23;;;19.13;;
27113;SDS011;14648;49.730;8.614;2023-02-24T09:28:06;52.37;;;21.80;;
27113;SDS011;14648;49.730;8.614;2023-02-24T09:30:43;44.63;;;19.80;;
27113;SDS011;14648;49.730;8.614;2023-02-24T09:33:20;44.47;;;20.50;;
27113;SDS011;14648;49.730;8.614;2023-02-24T09:36:06;50.30;;;21.93;;
27113;SDS011;14648;49.730;8.614;2023-02-24T09:38:44;40.90;;;19.97;;
27113;SDS011;14648;49.730;8.614;2023-02-24T09:41:30;47.17;;;22.37;;
27113;SDS011;14648;49.730;8.614;2023-02-24T09:44:51;42.03;;;19.20;;
27113;SDS011;14648;49.730;8.614;2023-02-24T09:52:44;39.97;;;21.10;;
27113;SDS011;14648;49.730;8.614;2023-02-24T09:55:26;44.23;;;21.93;;
27113;SDS011;14648;49.730;8.614;2023-02-24T09:58:26;46.87;;;20.50;;
27113;SDS011;14648;49.730;8.614;2023-02-24T10:04:51;44.67;;;20.33;;
27113;SDS011;14648;49.730;8.614;2023-02-24T10:07:32;42.80;;;19.43;;
27113;SDS011;14648;49.730;8.614;2023-02-24T10:13:08;42.73;;;19.77;;
27113;SDS011;14648;49.730;8.614;2023-02-24T10:15:54;40.13;;;19.60;;
27113;SDS011;14648;49.730;8.614;2023-02-24T10:18:36;35.70;;;18.27;;
27113;SDS011;14648;49.730;8.614;2023-02-24T10:21:15;37.23;;;16.77;;
27113;SDS011;14648;49.730;8.614;2023-02-24T10:24:36;35.70;;;17.77;;
27113;SDS011;14648;49.730;8.614;2023-02-24T10:27:17;39.47;;;19.40;;
27113;SDS011;14648;49.730;8.614;2023-02-24T10:30:04;41.97;;;19.03;;
27113;SDS011;14648;49.730;8.614;2023-02-24T10:32:54;36.17;;;19.30;;
27113;SDS011;14648;49.730;8.614;2023-02-24T10:35:23;47.57;;;18.40;;
27113;SDS011;14648;49.730;8.614;2023-02-24T10:37:57;33.23;;;16.40;;
27113;SDS011;14648;49.730;8.614;2023-02-24T10:40:30;36.13;;;16.80;;
27113;SDS011;14648;49.730;8.614;2023-02-24T10:43:22;41.27;;;15.10;;
27113;SDS011;14648;49.730;8.614;2023-02-24T10:45:56;33.27;;;15.57;;
27113;SDS011;14648;49.730;8.614;2023-02-24T10:48:41;33.87;;;15.50;;
27113;SDS011;14648;49.730;8.614;2023-02-24T10:51:24;30.43;;;15.43;;
27113;SDS011;14648;49.730;8.614;2023-02-24T10:54:19;38.33;;;16.40;;
27113;SDS011;14648;49.730;8.614;2023-02-24T10:56:57;32.63;;;14.93;;
27113;SDS011;14648;49.730;8.614;2023-02-24T10:59:57;31.13;;;14.63;;
27113;SDS011;14648;49.730;8.614;2023-02-24T11:02:46;35.17;;;16.40;;
27113;SDS011;14648;49.730;8.614;2023-02-24T11:05:33;31.40;;;15.83;;
27113;SDS011;14648;49.730;8.614;2023-02-24T11:08:23;32.80;;;15.77;;
27113;SDS011;14648;49.730;8.614;2023-02-24T11:13:57;45.63;;;22.00;;
27113;SDS011;14648;49.730;8.614;2023-02-24T11:16:49;34.77;;;18.17;;
27113;SDS011;14648;49.730;8.614;2023-02-24T11:19:44;34.27;;;16.67;;
27113;SDS011;14648;49.730;8.614;2023-02-24T11:22:19;31.87;;;15.00;;
27113;SDS011;14648;49.730;8.614;2023-02-24T11:24:51;38.40;;;17.97;;
27113;SDS011;14648;49.730;8.614;2023-02-24T11:27:17;38.17;;;17.03;;
27113;SDS011;14648;49.730;8.614;2023-02-24T11:29:57;38.23;;;17.20;;
27113;SDS011;14648;49.730;8.614;2023-02-24T11:32:52;41.33;;;18.37;;
27113;SDS011;14648;49.730;8.614;2023-02-24T11:35:54;37.10;;;17.97;;
27113;SDS011;14648;49.730;8.614;2023-02-24T11:38:45;37.87;;;18.70;;
27113;SDS011;14648;49.730;8.614;2023-02-24T11:41:44;42.13;;;18.00;;
27113;SDS011;14648;49.730;8.614;2023-02-24T11:47:28;35.30;;;16.73;;
27113;SDS011;14648;49.730;8.614;2023-02-24T11:52:50;34.60;;;16.40;;
27113;SDS011;14648;49.730;8.614;2023-02-24T11:55:37;37.47;;;17.30;;
27113;SDS011;14648;49.730;8.614;2023-02-24T11:58:13;35.03;;;15.63;;
27113;SDS011;14648;49.730;8.614;2023-02-24T12:00:54;31.20;;;14.63;;
27113;SDS011;14648;49.730;8.614;2023-02-24T12:03:29;27.70;;;13.30;;
27113;SDS011;14648;49.730;8.614;2023-02-24T12:06:26;33.67;;;16.03;;
27113;SDS011;14648;49.730;8.614;2023-02-24T12:08:56;34.17;;;16.03;;
27113;SDS011;14648;49.730;8.614;2023-02-24T12:14:20;35.00;;;16.40;;
27113;SDS011;14648;49.730;8.614;2023-02-24T12:16:59;33.90;;;16.83;;
27113;SDS011;14648;49.730;8.614;2023-02-24T12:22:41;37.70;;;21.37;;
27113;SDS011;14648;49.730;8.614;2023-02-24T12:25:15;28.07;;;14.57;;
27113;SDS011;14648;49.730;8.614;2023-02-24T12:36:54;31.70;;;14.83;;
27113;SDS011;14648;49.730;8.614;2023-02-24T12:40:08;27.43;;;11.93;;
27113;SDS011;14648;49.730;8.614;2023-02-24T12:45:33;30.13;;;15.07;;
27113;SDS011;14648;49.730;8.614;2023-02-24T12:48:26;26.47;;;14.00;;
27113;SDS011;14648;49.730;8.614;2023-02-24T12:54:27;22.00;;;12.00;;
27113;SDS011;14648;49.730;8.614;2023-02-24T13:11:38;18.27;;;8.20;;
27113;SDS011;14648;49.730;8.614;2023-02-24T13:14:18;18.07;;;8.30;;
27113;SDS011;14648;49.730;8.614;2023-02-24T13:16:50;17.00;;;7.83;;
27113;SDS011;14648;49.730;8.614;2023-02-24T13:19:36;14.90;;;7.93;;
27113;SDS011;14648;49.730;8.614;2023-02-24T13:27:23;14.00;;;7.37;;
27113;SDS011;14648;49.730;8.614;2023-02-24T13:29:57;12.23;;;7.00;;
27113;SDS011;14648;49.730;8.614;2023-02-24T13:37:41;13.93;;;8.30;;
27113;SDS011;14648;49.730;8.614;2023-02-24T13:42:41;18.43;;;8.47;;
27113;SDS011;14648;49.730;8.614;2023-02-24T13:47:40;12.83;;;7.90;;
27113;SDS011;14648;49.730;8.614;2023-02-24T13:57:20;13.93;;;8.00;;
27113;SDS011;14648;49.730;8.614;2023-02-24T14:03:39;15.87;;;8.43;;
27113;SDS011;14648;49.730;8.614;2023-02-24T14:06:24;18.43;;;8.40;;
27113;SDS011;14648;49.730;8.614;2023-02-24T14:08:55;13.83;;;7.50;;
27113;SDS011;14648;49.730;8.614;2023-02-24T14:11:24;15.47;;;7.43;;
27113;SDS011;14648;49.730;8.614;2023-02-24T14:13:55;14.87;;;6.90;;
27113;SDS011;14648;49.730;8.614;2023-02-24T14:16:23;13.23;;;6.60;;
27113;SDS011;14648;49.730;8.614;2023-02-24T14:18:53;10.87;;;6.00;;
27113;SDS011;14648;49.730;8.614;2023-02-24T14:21:23;15.33;;;7.30;;
27113;SDS011;14648;49.730;8.614;2023-02-24T14:23:55;12.00;;;6.20;;
27113;SDS011;14648;49.730;8.614;2023-02-24T14:26:41;7.97;;;4.90;;
27113;SDS011;14648;49.730;8.614;2023-02-24T14:29:23;7.77;;;4.90;;
27113;SDS011;14648;49.730;8.614;2023-02-24T14:31:55;9.30;;;4.50;;
27113;SDS011;14648;49.730;8.614;2023-02-24T14:34:25;10.77;;;5.37;;
27113;SDS011;14648;49.730;8.614;2023-02-24T14:36:55;7.23;;;4.90;;
27113;SDS011;14648;49.730;8.614;2023-02-24T14:39:30;9.93;;;3.70;;
27113;SDS011;14648;49.730;8.614;2023-02-24T14:44:39;7.30;;;4.80;;
27113;SDS011;14648;49.730;8.614;2023-02-24T14:47:24;9.17;;;5.23;;
27113;SDS011;14648;49.730;8.614;2023-02-24T14:49:57;4.50;;;3.23;;
27113;SDS011;14648;49.730;8.614;2023-02-24T14:52:29;6.57;;;4.40;;
27113;SDS011;14648;49.730;8.614;2023-02-24T14:55:18;7.13;;;4.70;;
27113;SDS011;14648;49.730;8.614;2023-02-24T14:57:57;8.90;;;5.13;;
27113;SDS011;14648;49.730;8.614;2023-02-24T15:01:21;10.17;;;4.60;;
27113;SDS011;14648;49.730;8.614;2023-02-24T15:03:35;8.53;;;4.60;;
27113;SDS011;14648;49.730;8.614;2023-02-24T15:06:26;8.10;;;4.90;;
27113;SDS011;14648;49.730;8.614;2023-02-24T15:09:05;12.20;;;5.37;;
27113;SDS011;14648;49.730;8.614;2023-02-24T15:11:45;6.70;;;4.77;;
27113;SDS011;14648;49.730;8.614;2023-02-24T15:14:30;11.93;;;5.83;;
27113;SDS011;14648;49.730;8.614;2023-02-24T15:17:00;10.30;;;5.83;;
27113;SDS011;14648;49.730;8.614;2023-02-24T15:19:39;9.20;;;4.97;;
27113;SDS011;14648;49.730;8.614;2023-02-24T15:22:26;11.17;;;5.50;;
27113;SDS011;14648;49.730;8.614;2023-02-24T15:28:03;8.73;;;5.30;;
27113;SDS011;14648;49.730;8.614;2023-02-24T15:30:30;14.50;;;6.57;;
27113;SDS011;14648;49.730;8.614;2023-02-24T15:33:20;10.83;;;5.93;;
27113;SDS011;14648;49.730;8.614;2023-02-24T15:35:53;11.30;;;6.20;;
27113;SDS011;14648;49.730;8.614;2023-02-24T15:38:24;12.87;;;6.73;;
27113;SDS011;14648;49.730;8.614;2023-02-24T15:40:56;9.50;;;5.77;;
27113;SDS011;14648;49.730;8.614;2023-02-24T15:43:32;10.73;;;6.03;;
27113;SDS011;14648;49.730;8.614;2023-02-24T15:48:43;11.20;;;5.30;;
27113;SDS011;14648;49.730;8.614;2023-02-24T15:51:34;14.37;;;5.93;;
27113;SDS011;14648;49.730;8.614;2023-02-24T15:54:14;10.63;;;5.90;;
27113;SDS011;14648;49.730;8.614;2023-02-24T15:57:01;10.70;;;6.27;;
27113;SDS011;14648;49.730;8.614;2023-02-24T15:59:29;10.07;;;6.17;;
27113;SDS011;14648;49.730;8.614;2023-02-24T16:01:56;9.60;;;5.73;;
27113;SDS011;14648;49.730;8.614;2023-02-24T16:04:22;10.07;;;6.30;;
27113;SDS011;14648;49.730;8.614;2023-02-24T16:06:48;9.83;;;5.43;;
27113;SDS011;14648;49.730;8.614;2023-02-24T16:09:20;9.97;;;6.10;;
27113;SDS011;14648;49.730;8.614;2023-02-24T16:12:04;10.87;;;5.00;;
27113;SDS011;14648;49.730;8.614;2023-02-24T16:14:37;8.47;;;5.07;;
27113;SDS011;14648;49.730;8.614;2023-02-24T16:17:05;6.93;;;4.73;;
27113;SDS011;14648;49.730;8.614;2023-02-24T16:19:43;9.07;;;5.50;;
27113;SDS011;14648;49.730;8.614;2023-02-24T16:22:09;7.33;;;4.90;;
27113;SDS011;14648;49.730;8.614;2023-02-24T16:24:34;8.43;;;4.70;;
27113;SDS011;14648;49.730;8.614;2023-02-24T16:27:04;5.30;;;4.20;;
27113;SDS011;14648;49.730;8.614;2023-02-24T16:29:30;8.97;;;5.00;;
27113;SDS011;14648;49.730;8.614;2023-02-24T16:31:55;7.63;;;5.17;;
27113;SDS011;14648;49.730;8.614;2023-02-24T16:34:21;10.33;;;5.80;;
27113;SDS011;14648;49.730;8.614;2023-02-24T16:36:47;9.20;;;5.93;;
27113;SDS011;14648;49.730;8.614;2023-02-24T16:39:13;8.63;;;5.07;;
27113;SDS011;14648;49.730;8.614;2023-02-24T16:41:39;9.50;;;5.97;;
27113;SDS011;14648;49.730;8.614;2023-02-24T16:44:05;9.40;;;5.10;;
27113;SDS011;14648;49.730;8.614;2023-02-24T16:46:32;7.83;;;5.23;;
27113;SDS011;14648;49.730;8.614;2023-02-24T16:49:01;9.13;;;4.63;;
27113;SDS011;14648;49.730;8.614;2023-02-24T16:51:32;7.40;;;5.03;;
27113;SDS011;14648;49.730;8.614;2023-02-24T16:53:59;8.00;;;3.20;;
27113;SDS011;14648;49.730;8.614;2023-02-24T16:56:25;5.40;;;3.40;;
27113;SDS011;14648;49.730;8.614;2023-02-24T16:58:51;7.77;;;3.97;;
27113;SDS011;14648;49.730;8.614;2023-02-24T17:01:18;3.87;;;3.20;;
27113;SDS011;14648;49.730;8.614;2023-02-24T17:03:46;7.37;;;3.17;;
27113;SDS011;14648;49.730;8.614;2023-02-24T17:06:14;5.60;;;3.20;;
27113;SDS011;14648;49.730;8.614;2023-02-24T17:08:40;7.70;;;3.07;;
27113;SDS011;14648;49.730;8.614;2023-02-24T17:11:17;3.83;;;2.50;;
27113;SDS011;14648;49.730;8.614;2023-02-24T17:13:45;5.33;;;2.67;;
27113;SDS011;14648;49.730;8.614;2023-02-24T17:16:11;4.40;;;2.90;;
27113;SDS011;14648;49.730;8.614;2023-02-24T17:18:36;2.10;;;1.90;;